EDT,Max TemperatureF,Mean TemperatureF,Min TemperatureF,Max Dew PointF,MeanDew PointF,Min DewpointF,Max Humidity, Mean Humidity, Min Humidity, Max Sea Level PressureIn, Mean Sea Level PressureIn, Min Sea Level PressureIn, Max VisibilityMiles, Mean VisibilityMiles, Min VisibilityMiles, Max Wind SpeedMPH, Mean Wind SpeedMPH, Max Gust SpeedMPH,PrecipitationIn, CloudCover, Events, WindDirDegrees
2013-7-1,82,75,67,72,68,64,93,80,67,29.97,29.91,29.85,10,9,4,10,2,13,0.22,7,Rain,68
2013-7-2,84,78,71,72,70,68,93,79,65,30.11,30.03,29.97,10,9,3,20,5,23,0.22,7,Rain,130
2013-7-3,85,79,72,70,69,66,84,73,61,30.19,30.15,30.11,10,10,10,16,6,24,T,5,,135
2013-7-4,89,81,73,74,70,69,87,71,55,30.21,30.17,30.11,10,10,2,16,5,23,0.12,5,Rain,138
2013-7-5,89,80,71,75,71,68,94,74,53,30.17,30.13,30.08,10,9,2,14,3,20,0.28,3,Rain,116
2013-7-6,90,81,71,72,70,67,93,72,50,30.17,30.12,30.02,10,7,0,13,3,15,0.00,4,Fog,232
2013-7-7,91,81,70,71,69,67,97,74,50,30.06,30.01,29.94,10,8,0,38,4,49,0.32,4,Fog-Rain-Thunderstorm,295
2013-7-8,82,75,68,68,66,65,90,74,58,30.07,30.04,30.01,10,9,5,16,4,18,T,4,Rain-Thunderstorm,260
2013-7-9,83,76,68,72,69,66,93,80,67,30.08,30.03,29.97,10,6,1,17,2,21,0.42,6,Rain,121
2013-7-10,87,78,68,70,69,64,93,74,55,29.98,29.90,29.80,10,7,2,37,4,46,0.13,6,Rain-Thunderstorm,243
2013-7-11,84,74,63,66,61,53,93,65,37,29.97,29.89,29.83,10,10,7,14,6,17,0.00,4,,291
2013-7-12,79,72,64,66,62,59,93,74,54,30.11,30.04,29.96,10,10,10,12,5,15,0.03,3,Rain,296
2013-7-13,83,75,67,70,66,64,93,80,67,30.26,30.17,30.09,10,6,2,15,3,21,0.20,7,Rain,161
2013-7-14,90,79,68,72,68,66,93,72,50,30.32,30.28,30.24,10,9,6,10,3,14,0.00,5,,106
2013-7-15,94,81,68,74,69,66,97,69,41,30.31,30.25,30.17,10,10,4,9,3,13,0.00,3,,270
2013-7-16,94,83,71,72,69,64,93,66,39,30.29,30.23,30.17,10,8,2,16,4,24,0.00,3,,292
2013-7-17,93,81,69,73,70,66,90,70,49,30.25,30.17,30.07,10,9,5,10,4,21,0.00,1,,266
2013-7-18,95,83,71,73,69,61,93,66,39,30.11,30.05,29.98,10,9,5,23,6,29,0.02,1,Rain-Thunderstorm,265
2013-7-19,95,83,70,73,69,67,97,69,41,30.01,29.92,29.79,10,9,5,17,5,23,0.00,2,,236
2013-7-20,91,82,73,70,67,62,82,62,41,29.86,29.80,29.76,10,9,7,22,6,31,T,3,Rain,269
2013-7-21,88,78,67,67,64,55,93,64,34,29.95,29.91,29.87,10,10,7,7,2,22,0.00,1,,282
2013-7-22,88,78,68,70,67,63,93,73,53,29.94,29.86,29.77,10,9,2,20,3,24,0.39,6,Rain-Thunderstorm,39
2013-7-23,87,78,69,70,67,60,93,69,45,29.76,29.67,29.60,10,8,2,20,3,26,0.01,6,Rain,263
2013-7-24,76,67,57,63,55,49,81,62,43,30.01,29.81,29.68,10,10,10,16,8,21,0.00,5,,329
2013-7-25,79,66,52,55,51,47,89,64,38,30.06,30.04,30.00,10,10,10,9,3,100,0.00,3,,317
2013-7-26,81,68,54,57,53,49,93,63,33,30.11,30.05,30.00,10,10,10,12,3,14,0.00,0,,247
2013-7-27,80,68,56,66,61,53,90,75,60,30.03,29.96,29.88,10,10,4,16,5,22,0.16,4,Rain,119
2013-7-28,81,71,61,66,62,57,90,70,49,29.97,29.90,29.86,10,8,1,39,6,52,0.60,5,Rain,173
2013-7-29,78,67,55,59,54,47,93,65,36,30.14,30.06,29.98,10,8,1,15,5,20,0.00,2,,263
2013-7-30,77,65,53,59,55,52,93,70,46,30.22,30.17,30.13,10,10,10,10,2,17,0.00,3,,244
2013-7-31,81,69,57,62,58,55,93,69,45,30.17,30.10,29.98,10,9,3,12,3,16,0.00,3,,132